createdAt,value
2018-06-28T00:00:10.110Z,97379.23
2018-06-28T00:02:38.236Z,97379.16
2018-06-28T00:05:06.323Z,97369.62
2018-06-28T00:07:34.347Z,97373.27
2018-06-28T00:10:02.263Z,97366.38
2018-06-28T00:12:30.415Z,97364.84
2018-06-28T00:14:58.488Z,97366.81
2018-06-28T00:17:26.484Z,97366.41
2018-06-28T00:19:54.516Z,97365.14
2018-06-28T00:22:22.524Z,97367.22
2018-06-28T00:24:50.658Z,97360.80
2018-06-28T00:27:18.722Z,97365.24
2018-06-28T00:29:46.832Z,97363.58
2018-06-28T00:32:14.817Z,97363.37
2018-06-28T00:34:42.916Z,97379.06
2018-06-28T00:37:11.067Z,97384.27
2018-06-28T00:39:39.100Z,97392.44
2018-06-28T00:42:07.208Z,97395.59
2018-06-28T00:44:35.289Z,97395.28
2018-06-28T00:47:03.349Z,97403.27
2018-06-28T00:49:31.375Z,97401.87
2018-06-28T00:51:59.546Z,97398.23
2018-06-28T00:54:27.543Z,97390.36
2018-06-28T00:56:55.688Z,97391.92
2018-06-28T00:59:23.827Z,97387.12
2018-06-28T01:01:52.119Z,97379.52
2018-06-28T01:04:20.202Z,97377.05
2018-06-28T01:06:48.276Z,97380.16
2018-06-28T01:09:16.241Z,97380.55
2018-06-28T01:11:44.305Z,97370.20
2018-06-28T01:14:13.315Z,97363.40
2018-06-28T01:16:41.355Z,97363.78
2018-06-28T01:19:09.509Z,97361.63
2018-06-28T01:21:37.627Z,97357.07
2018-06-28T01:24:05.729Z,97344.00
2018-06-28T01:26:33.981Z,97342.52
2018-06-28T01:29:02.058Z,97340.56
2018-06-28T01:31:30.232Z,97336.20
2018-06-28T01:33:58.208Z,97336.00
2018-06-28T01:36:26.178Z,97342.00
2018-06-28T01:38:54.379Z,97339.64
2018-06-28T01:41:22.444Z,97342.30
2018-06-28T01:43:50.520Z,97346.63
2018-06-28T01:46:18.962Z,97349.30
2018-06-28T01:48:47.196Z,97349.66
2018-06-28T01:51:15.274Z,97340.02
2018-06-28T01:53:43.340Z,97344.52
2018-06-28T01:56:11.389Z,97338.45
2018-06-28T01:58:39.534Z,97336.65
2018-06-28T02:01:07.792Z,97331.95
2018-06-28T02:03:36.136Z,97335.09
2018-06-28T02:06:04.142Z,97341.00
2018-06-28T02:08:32.118Z,97339.00
2018-06-28T02:11:00.157Z,97335.47
2018-06-28T02:13:28.149Z,97335.77
2018-06-28T02:15:57.304Z,97341.28
2018-06-28T02:18:25.376Z,97333.68
2018-06-28T02:20:53.325Z,97337.83
2018-06-28T02:23:22.225Z,97340.19
2018-06-28T02:25:50.199Z,97332.98
2018-06-28T02:28:18.137Z,97332.50
2018-06-28T02:30:46.139Z,97341.47
2018-06-28T02:33:14.101Z,97336.84
2018-06-28T02:35:42.523Z,97337.83
2018-06-28T02:38:10.652Z,97328.06
2018-06-28T02:40:38.581Z,97331.09
2018-06-28T02:43:06.550Z,97327.84
2018-06-28T02:45:34.459Z,97325.28
2018-06-28T02:48:02.588Z,97330.45
2018-06-28T02:50:30.544Z,97334.78
2018-06-28T02:52:58.580Z,97335.38
2018-06-28T02:55:26.520Z,97333.70
2018-06-28T02:57:54.556Z,97330.88
2018-06-28T03:00:22.554Z,97328.73
2018-06-28T03:02:50.525Z,97331.71
2018-06-28T03:05:19.060Z,97337.23
2018-06-28T03:07:47.777Z,97333.54
2018-06-28T03:10:15.860Z,97328.30
2018-06-28T03:12:43.821Z,97321.23
2018-06-28T03:15:11.820Z,97319.02
2018-06-28T03:17:40.287Z,97314.11
2018-06-28T03:20:08.245Z,97300.25
2018-06-28T03:22:36.240Z,97299.98
2018-06-28T03:25:04.218Z,97303.98
2018-06-28T03:27:32.188Z,97305.13
2018-06-28T03:30:00.238Z,97299.39
2018-06-28T03:32:28.212Z,97294.07
2018-06-28T03:34:56.199Z,97279.81
2018-06-28T03:37:24.200Z,97285.20
2018-06-28T03:39:52.320Z,97290.52
2018-06-28T03:42:25.285Z,97292.72
2018-06-28T03:44:53.279Z,97291.09
2018-06-28T03:47:21.291Z,97289.23
2018-06-28T03:49:49.241Z,97284.88
2018-06-28T03:52:17.231Z,97290.27
2018-06-28T03:54:45.117Z,97287.06
2018-06-28T03:57:13.429Z,97293.00
2018-06-28T03:59:41.423Z,97290.19
2018-06-28T04:02:09.438Z,97291.20
2018-06-28T04:04:37.449Z,97287.30
2018-06-28T04:07:05.474Z,97281.52
2018-06-28T04:09:33.576Z,97279.59
2018-06-28T04:12:01.562Z,97277.40
2018-06-28T04:14:29.539Z,97284.16
2018-06-28T04:16:57.485Z,97286.34
2018-06-28T04:19:25.491Z,97287.23
2018-06-28T04:21:53.485Z,97291.47
2018-06-28T04:24:21.418Z,97290.94
2018-06-28T04:26:50.422Z,97284.46
2018-06-28T04:29:18.468Z,97278.75
2018-06-28T04:31:46.507Z,97288.42
2018-06-28T04:34:14.454Z,97293.25
2018-06-28T04:36:42.506Z,97296.20
2018-06-28T04:39:12.612Z,97300.75
2018-06-28T04:41:40.616Z,97299.95
2018-06-28T04:44:08.700Z,97292.84
2018-06-28T04:46:36.658Z,97294.70
2018-06-28T04:49:04.627Z,97291.34
2018-06-28T04:51:32.578Z,97293.02
2018-06-28T04:54:00.546Z,97300.66
2018-06-28T04:56:28.459Z,97296.98
2018-06-28T04:58:56.424Z,97294.02
2018-06-28T05:01:24.503Z,97293.33
2018-06-28T05:03:52.621Z,97295.48
2018-06-28T05:06:21.017Z,97291.89
2018-06-28T05:08:49.167Z,97299.40
2018-06-28T05:11:17.054Z,97296.89
2018-06-28T05:13:45.028Z,97287.10
2018-06-28T05:16:13.066Z,97284.59
2018-06-28T05:18:41.166Z,97288.16
2018-06-28T05:21:09.112Z,97286.58
2018-06-28T05:23:37.306Z,97290.14
2018-06-28T05:26:05.488Z,97282.44
2018-06-28T05:28:33.481Z,97286.14
2018-06-28T05:31:01.445Z,97286.66
2018-06-28T05:33:29.445Z,97279.50
2018-06-28T05:35:58.021Z,97279.83
2018-06-28T05:38:26.003Z,97281.05
2018-06-28T05:40:54.019Z,97280.57
2018-06-28T05:43:22.038Z,97283.71
2018-06-28T05:45:50.114Z,97282.50
2018-06-28T05:48:18.138Z,97287.26
2018-06-28T05:50:46.164Z,97290.01
2018-06-28T05:53:14.184Z,97295.82
2018-06-28T05:55:42.363Z,97291.02
2018-06-28T05:58:10.542Z,97299.18
2018-06-28T06:00:38.612Z,97301.71
2018-06-28T06:03:06.699Z,97290.92
2018-06-28T06:05:34.679Z,97290.70
2018-06-28T06:08:03.275Z,97287.91
2018-06-28T06:10:31.294Z,97288.41
2018-06-28T06:13:00.682Z,97286.47
2018-06-28T06:15:28.675Z,97289.56
2018-06-28T06:17:56.780Z,97284.42
2018-06-28T06:20:25.074Z,97277.91
2018-06-28T06:22:53.514Z,97276.59
2018-06-28T06:25:21.591Z,97276.23
2018-06-28T06:27:49.583Z,97276.29
2018-06-28T06:30:17.524Z,97276.29
2018-06-28T06:32:45.576Z,97271.63
2018-06-28T06:35:14.603Z,97262.75
2018-06-28T06:37:42.720Z,97268.77
2018-06-28T06:40:10.740Z,97270.05
2018-06-28T06:42:38.745Z,97265.33
2018-06-28T06:45:07.684Z,97269.66
2018-06-28T06:47:35.659Z,97268.88
2018-06-28T06:50:03.776Z,97258.04
2018-06-28T06:52:31.824Z,97259.11
2018-06-28T06:54:59.984Z,97250.36
2018-06-28T06:57:27.989Z,97245.39
2018-06-28T06:59:56.167Z,97244.78
2018-06-28T07:02:24.330Z,97245.58
2018-06-28T07:04:52.360Z,97250.54
2018-06-28T07:07:20.357Z,97253.53
2018-06-28T07:09:48.409Z,97257.81
2018-06-28T07:12:16.613Z,97257.86
2018-06-28T07:14:44.578Z,97259.16
2018-06-28T07:17:12.669Z,97260.31
2018-06-28T07:19:40.651Z,97269.88
2018-06-28T07:22:08.746Z,97268.53
2018-06-28T07:24:36.786Z,97273.81
2018-06-28T07:27:05.060Z,97268.04
2018-06-28T07:29:33.062Z,97269.86
2018-06-28T07:32:02.190Z,97267.86
2018-06-28T07:34:30.325Z,97273.48
2018-06-28T07:36:58.312Z,97282.23
2018-06-28T07:39:28.024Z,97275.28
2018-06-28T07:41:56.048Z,97276.16
2018-06-28T07:44:24.006Z,97270.39
2018-06-28T07:46:52.533Z,97262.33
2018-06-28T07:49:20.710Z,97263.94
2018-06-28T07:51:48.651Z,97267.16
2018-06-28T07:54:17.703Z,97264.77
2018-06-28T07:56:45.905Z,97264.03
2018-06-28T07:59:13.836Z,97269.03
2018-06-28T08:01:41.846Z,97271.20
2018-06-28T08:04:09.906Z,97270.23
2018-06-28T08:06:38.147Z,97269.50
2018-06-28T08:09:07.352Z,97270.02
2018-06-28T08:11:35.353Z,97265.39
2018-06-28T08:14:03.420Z,97272.98
2018-06-28T08:16:34.768Z,97270.86
2018-06-28T08:19:02.692Z,97272.75
2018-06-28T08:21:30.774Z,97269.34
2018-06-28T08:23:58.778Z,97273.30
2018-06-28T08:26:26.823Z,97272.05
2018-06-28T08:28:54.811Z,97262.54
2018-06-28T08:31:22.898Z,97261.83
2018-06-28T08:33:51.252Z,97261.04
2018-06-28T08:36:20.279Z,97258.56
2018-06-28T08:38:48.217Z,97261.94
2018-06-28T08:41:16.453Z,97251.70
2018-06-28T08:43:45.409Z,97248.22
2018-06-28T08:46:13.443Z,97242.06
2018-06-28T08:48:41.479Z,97233.56
2018-06-28T08:51:09.446Z,97229.98
2018-06-28T08:53:37.404Z,97230.06
2018-06-28T08:56:05.540Z,97223.12
2018-06-28T08:58:33.931Z,97222.72
2018-06-28T09:01:01.896Z,97221.77
2018-06-28T09:03:29.933Z,97239.59
2018-06-28T09:05:58.528Z,97237.84
2018-06-28T09:08:26.653Z,97235.02
2018-06-28T09:10:54.715Z,97231.78
2018-06-28T09:13:22.810Z,97227.87
2018-06-28T09:15:51.142Z,97226.55
2018-06-28T09:18:19.152Z,97224.36
2018-06-28T09:20:47.179Z,97225.56
2018-06-28T09:23:15.365Z,97230.83
2018-06-28T09:25:43.843Z,97235.07
2018-06-28T09:28:12.266Z,97232.69
2018-06-28T09:30:40.270Z,97238.87
2018-06-28T09:33:08.359Z,97237.69
2018-06-28T09:35:36.307Z,97233.80
2018-06-28T09:38:04.263Z,97233.80
2018-06-28T09:40:32.359Z,97227.87
2018-06-28T09:43:00.708Z,97225.53
2018-06-28T09:45:28.977Z,97222.06
2018-06-28T09:47:57.172Z,97229.98
2018-06-28T09:50:25.211Z,97221.59
2018-06-28T09:52:53.476Z,97222.99
2018-06-28T09:55:21.800Z,97226.23
2018-06-28T09:57:50.076Z,97231.50
2018-06-28T10:00:22.530Z,97230.52
2018-06-28T10:02:50.608Z,97236.75
2018-06-28T10:05:18.600Z,97235.52
2018-06-28T10:07:55.419Z,97247.70
2018-06-28T10:10:23.454Z,97248.00
2018-06-28T10:12:51.501Z,97253.05
2018-06-28T10:15:19.501Z,97250.20
2018-06-28T10:17:47.482Z,97243.50
2018-06-28T10:20:15.530Z,97241.62
2018-06-28T10:22:43.719Z,97233.80
2018-06-28T10:25:11.673Z,97235.02
2018-06-28T10:27:39.649Z,97249.56
2018-06-28T10:30:07.695Z,97252.92
2018-06-28T10:32:36.119Z,97264.48
2018-06-28T10:35:04.168Z,97269.16
2018-06-28T10:37:32.707Z,97278.16
2018-06-28T10:40:00.843Z,97277.37
2018-06-28T10:42:29.068Z,97282.16
2018-06-28T10:44:57.098Z,97282.57
2018-06-28T10:47:25.191Z,97284.27
2018-06-28T10:49:53.186Z,97294.19
2018-06-28T10:52:21.258Z,97306.06
2018-06-28T10:54:49.185Z,97304.78
2018-06-28T10:57:17.224Z,97298.36
2018-06-28T10:59:45.179Z,97299.62
2018-06-28T11:02:13.172Z,97298.10
2018-06-28T11:04:41.116Z,97300.17
2018-06-28T11:07:09.047Z,97297.30
2018-06-28T11:09:38.265Z,97304.26
2018-06-28T11:12:06.365Z,97301.77
2018-06-28T11:14:34.690Z,97294.06
2018-06-28T11:17:02.653Z,97296.59
2018-06-28T11:19:30.801Z,97292.34
2018-06-28T11:21:58.768Z,97282.38
2018-06-28T11:24:27.487Z,97271.19
2018-06-28T11:26:55.593Z,97260.04
2018-06-28T11:29:24.176Z,97244.26
2018-06-28T11:31:52.837Z,97253.41
2018-06-28T11:34:21.908Z,97263.98
2018-06-28T11:36:50.442Z,97262.80
2018-06-28T11:39:18.447Z,97262.27
2018-06-28T11:41:46.715Z,97250.92
2018-06-28T11:44:14.820Z,97248.27
2018-06-28T11:46:43.403Z,97243.55
2018-06-28T11:49:11.408Z,97250.30
2018-06-28T11:51:39.958Z,97243.99
2018-06-28T11:54:08.180Z,97247.95
2018-06-28T11:56:36.352Z,97249.97
2018-06-28T11:59:04.319Z,97250.30
2018-06-28T12:01:32.678Z,97251.92
2018-06-28T12:04:00.831Z,97249.42
2018-06-28T12:06:28.846Z,97236.66
2018-06-28T12:08:57.091Z,97234.39
2018-06-28T12:11:26.328Z,97246.62
2018-06-28T12:13:54.551Z,97238.58
2018-06-28T12:16:23.240Z,97234.41
2018-06-28T12:18:51.884Z,97227.42
2018-06-28T12:21:20.036Z,97227.83
2018-06-28T12:23:48.228Z,97231.38
2018-06-28T12:26:17.217Z,97222.70
2018-06-28T12:28:45.195Z,97222.86
2018-06-28T12:31:13.147Z,97228.16
2018-06-28T12:33:41.384Z,97238.52
2018-06-28T12:36:11.908Z,97237.09
2018-06-28T12:38:40.063Z,97236.20
2018-06-28T12:41:08.500Z,97245.19
2018-06-28T12:43:37.147Z,97255.07
2018-06-28T12:46:05.284Z,97251.92
2018-06-28T12:48:33.561Z,97257.89
2018-06-28T12:51:01.583Z,97259.17
2018-06-28T12:53:29.579Z,97258.99
2018-06-28T12:56:31.610Z,97256.75
2018-06-28T12:59:01.048Z,97262.20
2018-06-28T13:01:29.560Z,97270.25
2018-06-28T13:03:59.203Z,97260.58
2018-06-28T13:06:27.334Z,97263.09
2018-06-28T13:08:55.917Z,97270.14
2018-06-28T13:11:24.659Z,97273.76
2018-06-28T13:13:53.305Z,97269.70
2018-06-28T13:16:22.306Z,97269.94
2018-06-28T13:18:50.318Z,97260.34
2018-06-28T13:21:18.259Z,97255.67
2018-06-28T13:23:46.345Z,97262.14
2018-06-28T13:26:15.471Z,97260.75
2018-06-28T13:28:44.723Z,97247.48
2018-06-28T13:31:12.919Z,97245.21
2018-06-28T13:33:40.971Z,97243.20
2018-06-28T13:36:09.079Z,97243.94
2018-06-28T13:38:37.952Z,97242.99
2018-06-28T13:41:06.277Z,97238.38
2018-06-28T13:43:34.130Z,97246.78
2018-06-28T13:46:02.316Z,97238.52
2018-06-28T13:48:30.568Z,97238.98
2018-06-28T13:50:58.540Z,97226.89
2018-06-28T13:53:26.522Z,97227.01
2018-06-28T13:55:56.562Z,97226.59
2018-06-28T13:58:24.670Z,97208.50
2018-06-28T14:00:52.749Z,97202.17
2018-06-28T14:03:20.969Z,97202.35
2018-06-28T14:05:49.011Z,97207.82
2018-06-28T14:08:16.959Z,97201.00
2018-06-28T14:10:45.899Z,97180.09
2018-06-28T14:13:13.928Z,97175.99
2018-06-28T14:15:42.502Z,97181.56
2018-06-28T14:18:11.055Z,97185.75
2018-06-28T14:20:39.087Z,97200.16
2018-06-28T14:23:07.604Z,97201.61
2018-06-28T14:25:37.774Z,97194.74
2018-06-28T14:28:05.772Z,97190.39
2018-06-28T14:30:33.833Z,97200.74
2018-06-28T14:33:02.238Z,97198.48
2018-06-28T14:35:30.708Z,97208.19
2018-06-28T14:37:58.705Z,97210.59
2018-06-28T14:40:27.077Z,97214.51
2018-06-28T14:42:55.050Z,97216.14
2018-06-28T14:45:23.023Z,97218.38
2018-06-28T14:47:51.356Z,97232.91
2018-06-28T14:50:19.385Z,97245.27
2018-06-28T14:52:47.380Z,97260.05
2018-06-28T14:55:15.429Z,97264.72
2018-06-28T14:57:43.480Z,97258.61
2018-06-28T15:00:17.060Z,97269.44
2018-06-28T15:02:45.119Z,97283.85
2018-06-28T15:05:13.712Z,97262.11
2018-06-28T15:07:41.922Z,97250.58
2018-06-28T15:10:09.902Z,97246.35
2018-06-28T15:12:37.880Z,97249.91
2018-06-28T15:15:06.581Z,97248.50
2018-06-28T15:17:34.588Z,97253.05
2018-06-28T15:20:02.634Z,97247.56
2018-06-28T15:22:30.631Z,97238.80
2018-06-28T15:24:58.668Z,97243.72
2018-06-28T15:27:26.647Z,97235.64
2018-06-28T15:29:54.873Z,97237.40
2018-06-28T15:32:22.909Z,97240.34
2018-06-28T15:34:50.900Z,97242.29
2018-06-28T15:37:18.878Z,97234.53
2018-06-28T15:39:46.755Z,97234.40
2018-06-28T15:42:17.350Z,97229.49
2018-06-28T15:44:45.863Z,97216.12
2018-06-28T15:47:13.839Z,97215.95
2018-06-28T15:49:42.118Z,97201.51
2018-06-28T15:52:10.136Z,97204.45
2018-06-28T15:54:38.231Z,97206.84
2018-06-28T15:57:06.151Z,97212.61
2018-06-28T15:59:34.217Z,97210.17
2018-06-28T16:02:02.483Z,97179.08
2018-06-28T16:04:30.462Z,97171.80
2018-06-28T16:06:59.316Z,97168.84
2018-06-28T16:09:27.619Z,97169.72
2018-06-28T16:11:55.742Z,97181.65
2018-06-28T16:14:23.787Z,97207.81
2018-06-28T16:16:51.758Z,97228.34
2018-06-28T16:19:20.624Z,97235.75
2018-06-28T16:21:48.636Z,97232.94
2018-06-28T16:24:17.243Z,97235.88
2018-06-28T16:26:45.310Z,97231.20
2018-06-28T16:29:13.333Z,97249.80
2018-06-28T16:31:41.319Z,97260.37
2018-06-28T16:34:09.379Z,97273.17
2018-06-28T16:36:37.420Z,97275.66
2018-06-28T16:39:09.399Z,97275.60
2018-06-28T16:41:37.457Z,97282.22
2018-06-28T16:44:05.898Z,97292.25
2018-06-28T16:46:34.001Z,97293.61
2018-06-28T16:49:02.076Z,97289.30
2018-06-28T16:51:30.008Z,97290.09
2018-06-28T16:53:58.080Z,97285.10
2018-06-28T16:56:26.052Z,97285.93
2018-06-28T16:58:54.152Z,97284.96
2018-06-28T17:01:22.193Z,97285.58
2018-06-28T17:03:50.252Z,97286.95
2018-06-28T17:06:18.203Z,97289.89
2018-06-28T17:08:46.463Z,97279.36
2018-06-28T17:11:14.473Z,97274.83
2018-06-28T17:13:42.493Z,97275.13
2018-06-28T17:16:10.895Z,97276.80
2018-06-28T17:18:39.248Z,97275.20
2018-06-28T17:21:07.428Z,97272.83
2018-06-28T17:23:35.830Z,97266.66
2018-06-28T17:26:04.162Z,97262.81
2018-06-28T17:28:32.320Z,97264.91
2018-06-28T17:31:01.446Z,97261.83
2018-06-28T17:33:29.453Z,97267.96
2018-06-28T17:35:57.605Z,97267.69
2018-06-28T17:38:25.683Z,97265.90
2018-06-28T17:40:53.907Z,97258.03
2018-06-28T17:43:22.268Z,97249.67
2018-06-28T17:45:50.553Z,97257.39
2018-06-28T17:48:18.873Z,97247.66
2018-06-28T17:50:47.209Z,97248.34
2018-06-28T17:53:15.375Z,97251.87
2018-06-28T17:55:44.088Z,97253.55
2018-06-28T17:58:12.627Z,97261.63
2018-06-28T18:00:40.877Z,97265.05
2018-06-28T18:03:09.484Z,97271.05
2018-06-28T18:05:37.603Z,97269.58
2018-06-28T18:08:05.892Z,97270.45
2018-06-28T18:10:33.935Z,97275.05
2018-06-28T18:13:02.107Z,97286.16
2018-06-28T18:15:30.077Z,97282.03
2018-06-28T18:17:58.103Z,97291.94
2018-06-28T18:20:26.152Z,97287.41
2018-06-28T18:22:54.126Z,97291.22
2018-06-28T18:25:23.360Z,97288.81
2018-06-28T18:27:52.371Z,97292.33
2018-06-28T18:30:20.615Z,97291.58
2018-06-28T18:32:48.752Z,97288.27
2018-06-28T18:35:16.928Z,97289.03
2018-06-28T18:37:45.966Z,97289.34
2018-06-28T18:40:14.016Z,97292.28
2018-06-28T18:42:42.081Z,97302.67
2018-06-28T18:45:10.808Z,97305.56
2018-06-28T18:47:38.850Z,97308.14
2018-06-28T18:50:06.836Z,97310.81
2018-06-28T18:52:34.867Z,97315.20
2018-06-28T18:55:04.845Z,97318.61
2018-06-28T18:57:34.600Z,97328.61
2018-06-28T19:00:03.271Z,97330.47
2018-06-28T19:02:32.198Z,97328.06
2018-06-28T19:05:00.271Z,97333.15
2018-06-28T19:07:28.317Z,97326.73
2018-06-28T19:10:01.903Z,97337.03
2018-06-28T19:12:29.798Z,97347.05
2018-06-28T19:15:03.386Z,97345.38
2018-06-28T19:17:32.337Z,97343.05
2018-06-28T19:20:00.945Z,97346.35
2018-06-28T19:22:34.454Z,97350.00
2018-06-28T19:25:02.821Z,97356.37
2018-06-28T19:27:30.784Z,97362.98
2018-06-28T19:30:05.092Z,97368.53
2018-06-28T19:32:34.957Z,97358.02
2018-06-28T19:35:03.340Z,97355.02
2018-06-28T19:37:36.664Z,97361.94
2018-06-28T19:40:11.985Z,97356.34
2018-06-28T19:42:46.057Z,97350.32
2018-06-28T19:45:14.247Z,97347.55
2018-06-28T19:47:42.827Z,97346.94
2018-06-28T19:50:16.458Z,97347.06
2018-06-28T19:52:49.843Z,97344.78
2018-06-28T19:55:18.419Z,97343.06
2018-06-28T19:57:46.425Z,97346.63
2018-06-28T20:00:19.806Z,97340.07
2018-06-28T20:02:53.252Z,97337.96
2018-06-28T20:05:21.721Z,97333.03
2018-06-28T20:07:50.054Z,97334.41
2018-06-28T20:10:19.208Z,97343.41
2018-06-28T20:12:53.353Z,97343.11
2018-06-28T20:16:05.151Z,97345.56
2018-06-28T20:18:39.473Z,97355.94
2018-06-28T20:21:07.633Z,97348.94
2018-06-28T20:23:36.133Z,97344.72
2018-06-28T20:26:09.468Z,97352.77
2018-06-28T20:28:43.499Z,97350.66
2018-06-28T20:31:16.875Z,97358.41
2018-06-28T20:33:50.334Z,97368.35
2018-06-28T20:36:18.295Z,97369.94
2018-06-28T20:38:46.218Z,97368.30
2018-06-28T20:41:14.162Z,97360.58
2018-06-28T20:43:42.092Z,97367.25
2018-06-28T20:46:10.332Z,97366.73
2018-06-28T20:48:38.251Z,97365.19
2018-06-28T20:51:06.907Z,97372.78
2018-06-28T20:53:34.888Z,97368.95
2018-06-28T20:56:02.868Z,97364.64
2018-06-28T20:58:30.809Z,97371.45
2018-06-28T21:00:58.811Z,97373.66
2018-06-28T21:03:27.202Z,97369.00
2018-06-28T21:05:55.070Z,97370.27
2018-06-28T21:08:22.978Z,97371.06
2018-06-28T21:10:51.404Z,97363.97
2018-06-28T21:13:19.331Z,97368.28
2018-06-28T21:15:47.684Z,97359.57
2018-06-28T21:18:15.585Z,97354.83
2018-06-28T21:20:43.503Z,97354.38
2018-06-28T21:23:11.707Z,97349.05
2018-06-28T21:25:39.702Z,97352.80
2018-06-28T21:28:07.750Z,97353.33
2018-06-28T21:30:35.726Z,97342.45
2018-06-28T21:33:03.641Z,97349.05
2018-06-28T21:35:31.513Z,97346.11
2018-06-28T21:38:04.042Z,97342.72
2018-06-28T21:40:31.977Z,97344.70
2018-06-28T21:42:59.953Z,97339.44
2018-06-28T21:45:27.971Z,97336.88
2018-06-28T21:47:55.992Z,97338.78
2018-06-28T21:50:24.030Z,97340.05
2018-06-28T21:52:52.044Z,97339.45
2018-06-28T21:55:19.980Z,97335.75
2018-06-28T21:57:47.955Z,97338.75
2018-06-28T22:00:33.164Z,97332.46
2018-06-28T22:03:03.210Z,97335.97
2018-06-28T22:05:32.265Z,97324.88
2018-06-28T22:08:00.593Z,97318.23
2018-06-28T22:10:28.492Z,97319.32
2018-06-28T22:12:56.703Z,97325.59
2018-06-28T22:15:26.080Z,97320.14
2018-06-28T22:17:57.148Z,97330.05
2018-06-28T22:20:26.253Z,97329.16
2018-06-28T22:22:54.453Z,97320.28
2018-06-28T22:25:22.805Z,97319.63
2018-06-28T22:27:50.718Z,97321.13
2018-06-28T22:30:19.285Z,97321.72
2018-06-28T22:32:47.153Z,97316.56
2018-06-28T22:35:15.286Z,97312.12
2018-06-28T22:37:43.453Z,97319.23
2018-06-28T22:40:11.447Z,97311.59
2018-06-28T22:42:39.646Z,97318.75
2018-06-28T22:45:08.398Z,97325.74
2018-06-28T22:47:36.379Z,97323.84
2018-06-28T22:50:04.644Z,97329.20
2018-06-28T22:52:33.640Z,97332.54
2018-06-28T22:55:01.894Z,97336.84
2018-06-28T22:57:29.922Z,97337.83
2018-06-28T22:59:58.184Z,97334.56
2018-06-28T23:02:26.080Z,97342.50
2018-06-28T23:04:54.372Z,97345.95
2018-06-28T23:07:22.542Z,97341.59
2018-06-28T23:09:50.421Z,97338.23
2018-06-28T23:12:18.432Z,97336.11
2018-06-28T23:14:46.435Z,97334.81
2018-06-28T23:17:14.334Z,97331.25
2018-06-28T23:19:42.592Z,97329.73
2018-06-28T23:22:46.694Z,97331.69
2018-06-28T23:25:15.302Z,97330.31
2018-06-28T23:27:43.985Z,97322.44
2018-06-28T23:30:12.203Z,97323.09
2018-06-28T23:32:40.735Z,97317.45
2018-06-28T23:35:08.942Z,97314.78
2018-06-28T23:37:37.530Z,97306.75
2018-06-28T23:40:05.613Z,97305.58
2018-06-28T23:42:34.034Z,97298.23
2018-06-28T23:45:02.108Z,97301.50
2018-06-28T23:47:30.054Z,97304.20
2018-06-28T23:49:58.082Z,97296.98
2018-06-28T23:52:25.989Z,97294.53
2018-06-28T23:54:54.346Z,97299.99
2018-06-28T23:57:22.243Z,97300.22
2018-06-28T23:59:50.154Z,97298.14
